Time;durP1;ratioP1;P1;durP2;ratioP2;P2;SDS_P1;SDS_P2;PMS_P1;PMS_P2;Temp;Humidity;BMP_temperature;BMP_pressure;BME280_temperature;BME280_humidity;BME280_pressure;Samples;Min_cycle;Max_cycle;Signal;HPM_P1;HPM_P2
2022/12/13 00:01:13;;;;;;;;;;;;;;;-6.88;100.00;101155.41;5012302;28;19936;-61
2022/12/13 00:03:39;;;;;;;;;;;;;;;-6.88;100.00;101155.41;5011887;28;20004;-60
2022/12/13 00:06:05;;;;;;;;;;;;;;;-6.87;100.00;101153.56;5012003;28;20002;-61
2022/12/13 00:08:30;;;;;;;;;;;;;;;-6.89;100.00;101153.72;5011443;28;20289;-61
2022/12/13 00:11:03;;;;;;;;;;;;;;;-6.88;100.00;101157.28;5012211;28;19913;-62
2022/12/13 00:13:28;;;;;;;;;;;;;;;-6.90;100.00;101149.41;5011901;28;19913;-62
2022/12/13 00:15:58;;;;;;;;;;;;;;;-6.90;100.00;101146.69;5010350;28;19913;-61
2022/12/13 00:18:23;;;;;;;;;;;;;;;-6.94;100.00;101143.50;5011704;28;20297;-61
2022/12/13 00:20:48;;;;;;;;;;;;;;;-6.94;100.00;101145.38;5011771;28;19920;-61
2022/12/13 00:23:13;;;;;;;;;;;;;;;-6.96;100.00;101142.03;5011950;28;20357;-61
2022/12/13 00:25:39;;;;;;;;;;;;;;;-6.96;100.00;101140.19;5011837;28;19940;-60
2022/12/13 00:28:04;;;;;;;;;;;;;;;-6.96;100.00;101144.72;5011963;28;19944;-61
2022/12/13 00:30:30;;;;;;;;;;;;;;;-6.97;100.00;101145.75;5011691;28;19913;-61
2022/12/13 00:32:55;;;;;;;;;;;;;;;-6.97;100.00;101140.34;5011317;28;20445;-61
2022/12/13 00:35:21;;;;;;;;;;;;;;;-6.99;100.00;101145.09;5011378;28;20000;-61
2022/12/13 00:37:46;;;;;;;;;;;;;;;-7.00;100.00;101146.13;5011404;28;19991;-61
2022/12/13 00:40:11;;;;;;;;;;;;;;;-7.01;100.00;101139.06;5011443;28;19913;-61
2022/12/13 00:42:36;;;;;;;;;;;;;;;-7.05;100.00;101138.59;5011770;28;19945;-61
2022/12/13 00:45:01;;;;;;;;;;;;;;;-7.06;100.00;101139.63;5011768;28;19956;-61
2022/12/13 00:47:27;;;;;;;;;;;;;;;-7.06;100.00;101136.94;5011979;28;19940;-61
2022/12/13 00:49:52;;;;;;;;;;;;;;;-7.05;100.00;101135.91;5015336;28;19913;-61
2022/12/13 00:52:17;;;;;;;;;;;;;;;-7.08;100.00;101134.41;5013793;28;19967;-61
2022/12/13 00:54:42;;;;;;;;;;;;;;;-7.13;100.00;101136.00;5015337;28;19929;-61
2022/12/13 00:57:07;;;;;;;;;;;;;;;-7.14;100.00;101139.69;5015181;28;19913;-61
2022/12/13 00:59:33;;;;;;;;;;;;;;;-7.15;100.00;101129.94;5015307;28;19961;-61
2022/12/13 01:01:58;;;;;;;;;;;;;;;-7.15;100.00;101132.63;5015004;28;20357;-61
2022/12/13 01:04:23;;;;;;;;;;;;;;;-7.16;100.00;101137.16;5015142;28;19921;-61
2022/12/13 01:06:50;;;;;;;;;;;;;;;-7.17;100.00;101143.56;5015134;28;19917;-61
2022/12/13 01:09:18;;;;;;;;;;;;;;;-7.17;100.00;101140.03;5014874;28;19998;-61
2022/12/13 01:11:44;;;;;;;;;;;;;;;-7.18;100.00;101144.59;5014914;28;19918;-61
2022/12/13 01:14:09;;;;;;;;;;;;;;;-7.21;100.00;101137.72;5015138;28;20265;-61
2022/12/13 01:16:34;;;;;;;;;;;;;;;-7.23;100.00;101134.41;5015037;28;19913;-61
2022/12/13 01:18:59;;;;;;;;;;;;;;;-7.25;100.00;101131.03;5014373;28;19917;-60
2022/12/13 01:21:24;;;;;;;;;;;;;;;-7.26;100.00;101132.06;5014648;28;19914;-60
2022/12/13 01:23:50;;;;;;;;;;;;;;;-7.28;100.00;101128.69;5014667;28;20338;-60
2022/12/13 01:26:16;;;;;;;;;;;;;;;-7.32;100.00;101134.63;5014697;28;19920;-60
2022/12/13 01:28:42;;;;;;;;;;;;;;;-7.36;100.00;101134.16;5013485;28;19917;-60
2022/12/13 01:31:09;;;;;;;;;;;;;;;-7.36;100.00;101139.53;5014784;28;19917;-60
2022/12/13 01:33:34;;;;;;;;;;;;;;;-7.38;100.00;101131.66;5014554;28;20314;-61
2022/12/13 01:36:00;;;;;;;;;;;;;;;-7.38;100.00;101131.66;5014576;28;19913;-61
2022/12/13 01:38:26;;;;;;;;;;;;;;;-7.38;100.00;101128.13;5014547;28;19917;-61
2022/12/13 01:40:57;;;;;;;;;;;;;;;-7.39;100.00;101134.50;5014369;28;19964;-61
2022/12/13 01:43:23;;;;;;;;;;;;;;;-7.41;100.00;101133.84;5010617;28;20330;-61
2022/12/13 01:45:49;;;;;;;;;;;;;;;-7.42;100.00;101132.19;5014316;28;19921;-61
2022/12/13 01:48:18;;;;;;;;;;;;;;;-7.44;100.00;101134.22;5014241;28;19913;-61
2022/12/13 01:50:46;;;;;;;;;;;;;;;-7.44;100.00;101136.91;5014111;28;19960;-61
2022/12/13 01:53:14;;;;;;;;;;;;;;;-7.45;100.00;101132.53;5014093;28;19921;-61
2022/12/13 01:55:40;;;;;;;;;;;;;;;-7.45;100.00;101136.06;5014159;28;19932;-61
2022/12/13 01:58:06;;;;;;;;;;;;;;;-7.45;100.00;101137.91;5013857;28;19921;-61
2022/12/13 02:00:33;;;;;;;;;;;;;;;-7.47;100.00;101130.03;5014105;28;19913;-61
2022/12/13 02:02:59;;;;;;;;;;;;;;;-7.49;100.00;101126.69;5013804;28;20000;-61
2022/12/13 02:05:30;;;;;;;;;;;;;;;-7.49;100.00;101134.75;5013860;28;20448;-61
2022/12/13 02:07:56;;;;;;;;;;;;;;;-7.49;100.00;101145.50;5014109;28;19955;-61
2022/12/13 02:10:22;;;;;;;;;;;;;;;-7.50;100.00;101138.47;5013588;28;20278;-61
2022/12/13 02:12:47;;;;;;;;;;;;;;;-7.52;100.00;101132.41;5013838;28;19941;-61
2022/12/13 02:15:14;;;;;;;;;;;;;;;-7.54;100.00;101129.91;5013592;28;19925;-61
2022/12/13 02:17:42;;;;;;;;;;;;;;;-7.53;100.00;101130.75;5013945;28;19932;-62
2022/12/13 02:20:27;;;;;;;;;;;;;;;-7.54;100.00;101129.91;5013845;28;19920;-63
2022/12/13 02:22:52;;;;;;;;;;;;;;;-7.54;100.00;101137.97;5013845;28;19913;-62
2022/12/13 02:25:26;;;;;;;;;;;;;;;-7.55;100.00;101130.09;5013564;28;20008;-62
2022/12/13 02:27:57;;;;;;;;;;;;;;;-7.57;100.00;101124.06;5013611;28;19914;-62
2022/12/13 02:30:32;;;;;;;;;;;;;;;-7.60;100.00;101127.94;5013503;28;19913;-62
2022/12/13 02:33:08;;;;;;;;;;;;;;;-7.60;100.00;101122.56;5013667;28;19921;-62
2022/12/13 02:35:33;;;;;;;;;;;;;;;-7.60;100.00;101129.78;5013548;28;19913;-62
2022/12/13 02:38:03;;;;;;;;;;;;;;;-7.61;100.00;101130.81;5013163;28;20370;-62
2022/12/13 02:40:31;;;;;;;;;;;;;;;-7.61;100.00;101131.66;5010380;28;20444;-62
2022/12/13 02:42:59;;;;;;;;;;;;;;;-7.61;100.00;101125.44;5013419;28;19959;-62
2022/12/13 02:45:29;;;;;;;;;;;;;;;-7.63;100.00;101120.25;5011865;28;20393;-61
2022/12/13 02:47:56;;;;;;;;;;;;;;;-7.63;100.00;101128.31;5013307;28;19917;-62
2022/12/13 02:50:22;;;;;;;;;;;;;;;-7.64;100.00;101118.56;5013155;28;19917;-62
2022/12/13 02:52:48;;;;;;;;;;;;;;;-7.64;100.00;101117.72;5013013;28;19917;-62
2022/12/13 02:55:14;;;;;;;;;;;;;;;-7.64;100.00;101117.72;5013018;28;19913;-62
2022/12/13 02:57:40;;;;;;;;;;;;;;;-7.64;100.00;101115.03;5013083;28;19948;-62
2022/12/13 03:00:08;;;;;;;;;;;;;;;-7.66;100.00;101104.47;5013222;28;19996;-62
2022/12/13 03:02:52;;;;;;;;;;;;;;;-7.65;100.00;101111.53;5012985;28;19917;-61
2022/12/13 03:08:12;;;;;;;;;;;;;;;-7.65;100.00;101100.78;5012279;28;20419;-61
2022/12/13 03:10:50;;;;;;;;;;;;;;;-7.65;100.00;101099.97;5012525;28;19920;-62
2022/12/13 03:13:36;;;;;;;;;;;;;;;-7.64;100.00;101101.59;5012451;28;19960;-62
2022/12/13 03:16:07;;;;;;;;;;;;;;;-7.64;100.00;101099.75;5012480;28;20004;-62
2022/12/13 03:18:33;;;;;;;;;;;;;;;-7.64;100.00;101098.91;5012538;28;20284;-61
2022/12/13 03:21:00;;;;;;;;;;;;;;;-7.61;100.00;101101.25;5012432;28;20004;-62
2022/12/13 03:23:26;;;;;;;;;;;;;;;-7.60;100.00;101095.69;5012356;28;19920;-62
2022/12/13 03:25:54;;;;;;;;;;;;;;;-7.59;100.00;101100.03;5012405;28;19913;-62
2022/12/13 03:28:19;;;;;;;;;;;;;;;-7.57;100.00;101095.34;5009491;28;19987;-62
2022/12/13 03:30:45;;;;;;;;;;;;;;;-7.57;100.00;101105.25;5012256;28;20293;-62
2022/12/13 03:33:10;;;;;;;;;;;;;;;-7.58;100.00;101106.28;5012376;28;20115;-62
2022/12/13 03:35:35;;;;;;;;;;;;;;;-7.58;100.00;101106.28;5012039;28;19913;-61
2022/12/13 03:38:01;;;;;;;;;;;;;;;-7.59;100.00;101109.97;5012234;28;19925;-62
2022/12/13 03:40:27;;;;;;;;;;;;;;;-7.58;100.00;101107.09;5012106;28;19936;-62
2022/12/13 03:42:53;;;;;;;;;;;;;;;-7.58;100.00;101106.28;5012052;28;19959;-62
2022/12/13 03:45:19;;;;;;;;;;;;;;;-7.62;100.00;101096.88;5012184;28;20356;-61
2022/12/13 03:47:44;;;;;;;;;;;;;;;-7.64;100.00;101105.13;5012295;28;20008;-61
2022/12/13 03:50:10;;;;;;;;;;;;;;;-7.65;100.00;101100.78;5012018;28;20360;-62
2022/12/13 03:52:35;;;;;;;;;;;;;;;-7.65;100.00;101105.31;5012258;28;19928;-62
2022/12/13 03:55:00;;;;;;;;;;;;;;;-7.65;100.00;101105.31;5012183;28;19925;-62
2022/12/13 03:57:25;;;;;;;;;;;;;;;-7.66;100.00;101104.47;5012135;28;19925;-62
2022/12/13 03:59:50;;;;;;;;;;;;;;;-7.66;100.00;101096.41;5012095;28;20384;-62
2022/12/13 04:02:16;;;;;;;;;;;;;;;-7.66;100.00;101093.72;5012075;28;19971;-61
2022/12/13 04:04:41;;;;;;;;;;;;;;;-7.66;100.00;101092.91;5012056;28;19918;-62
2022/12/13 04:07:06;;;;;;;;;;;;;;;-7.65;100.00;101089.22;5012231;28;19924;-61
2022/12/13 04:09:31;;;;;;;;;;;;;;;-7.66;100.00;101095.59;5012145;28;19946;-61
2022/12/13 04:14:40;;;;;;;;;;;;;;;-7.68;100.00;101093.91;5011562;28;19925;-61
2022/12/13 04:17:05;;;;;;;;;;;;;;;-7.69;100.00;101096.75;5011974;28;19913;-62
2022/12/13 04:19:30;;;;;;;;;;;;;;;-7.68;100.00;101090.38;5012653;28;19917;-62
2022/12/13 04:21:56;;;;;;;;;;;;;;;-7.68;100.00;101088.53;5015887;28;19913;-62
2022/12/13 04:24:22;;;;;;;;;;;;;;;-7.69;100.00;101089.56;5012865;28;19913;-62
2022/12/13 04:26:47;;;;;;;;;;;;;;;-7.70;100.00;101085.19;5015510;28;20033;-62
2022/12/13 04:29:12;;;;;;;;;;;;;;;-7.70;100.00;101079.00;5015641;28;19947;-62
2022/12/13 04:31:37;;;;;;;;;;;;;;;-7.71;100.00;101080.84;5015773;28;19921;-62
2022/12/13 04:34:02;;;;;;;;;;;;;;;-7.70;100.00;101079.81;5015921;28;19921;-63
2022/12/13 04:36:28;;;;;;;;;;;;;;;-7.70;100.00;101076.31;5015643;28;20278;-63
2022/12/13 04:38:53;;;;;;;;;;;;;;;-7.69;100.00;101086.03;5015484;28;19956;-63
2022/12/13 04:41:18;;;;;;;;;;;;;;;-7.69;100.00;101076.13;5015518;28;19936;-65
2022/12/13 04:43:48;;;;;;;;;;;;;;;-7.70;100.00;101076.31;5014576;28;19925;-62
2022/12/13 04:46:14;;;;;;;;;;;;;;;-7.69;100.00;101080.66;5014721;28;20023;-62
2022/12/13 04:48:39;;;;;;;;;;;;;;;-7.69;100.00;101084.19;5014657;28;19973;-61
2022/12/13 04:51:04;;;;;;;;;;;;;;;-7.69;100.00;101068.06;5014525;28;19950;-62
2022/12/13 04:53:29;;;;;;;;;;;;;;;-7.69;100.00;101072.59;5013908;28;19939;-63
2022/12/13 04:55:55;;;;;;;;;;;;;;;-7.70;100.00;101074.44;5015336;28;19925;-62
2022/12/13 04:58:20;;;;;;;;;;;;;;;-7.70;100.00;101081.69;5013892;28;20043;-62
2022/12/13 05:00:45;;;;;;;;;;;;;;;-7.71;100.00;101078.16;5015251;28;20257;-62
2022/12/13 05:03:10;;;;;;;;;;;;;;;-7.70;100.00;101074.44;5015223;28;19913;-61
2022/12/13 05:05:39;;;;;;;;;;;;;;;-7.71;100.00;101077.31;5015142;28;19959;-62
2022/12/13 05:08:04;;;;;;;;;;;;;;;-7.72;100.00;101067.59;5015195;28;19948;-62
2022/12/13 05:10:30;;;;;;;;;;;;;;;-7.72;100.00;101064.91;5015083;28;19948;-62
2022/12/13 05:12:55;;;;;;;;;;;;;;;-7.73;100.00;101071.28;5015088;28;19921;-61
2022/12/13 05:15:20;;;;;;;;;;;;;;;-7.73;100.00;101077.47;5014566;28;19933;-61
2022/12/13 05:17:45;;;;;;;;;;;;;;;-7.74;100.00;101073.13;5014849;28;20111;-60
2022/12/13 05:20:11;;;;;;;;;;;;;;;-7.72;100.00;101064.91;5010841;28;20269;-60
2022/12/13 05:22:36;;;;;;;;;;;;;;;-7.71;100.00;101072.78;5014732;28;19944;-61
2022/12/13 05:25:02;;;;;;;;;;;;;;;-7.70;100.00;101065.56;5015014;28;19921;-61
2022/12/13 05:27:27;;;;;;;;;;;;;;;-7.70;100.00;101063.69;5014941;28;20265;-61
2022/12/13 05:29:55;;;;;;;;;;;;;;;-7.70;100.00;101055.66;5014649;28;19913;-63
2022/12/13 05:32:21;;;;;;;;;;;;;;;-7.71;100.00;101061.22;5013953;28;19913;-61
2022/12/13 05:34:46;;;;;;;;;;;;;;;-7.71;100.00;101056.66;5014509;28;19913;-62
2022/12/13 05:37:11;;;;;;;;;;;;;;;-7.71;100.00;101053.16;5014466;28;19957;-61
2022/12/13 05:39:36;;;;;;;;;;;;;;;-7.72;100.00;101054.97;5014060;28;19913;-62
2022/12/13 05:42:01;;;;;;;;;;;;;;;-7.72;100.00;101051.47;5013967;28;20380;-62
2022/12/13 05:44:27;;;;;;;;;;;;;;;-7.72;100.00;101043.41;5014023;28;19918;-63
2022/12/13 05:46:52;;;;;;;;;;;;;;;-7.73;100.00;101047.13;5014565;28;20368;-62
2022/12/13 05:49:17;;;;;;;;;;;;;;;-7.75;100.00;101036.56;5014189;28;19917;-62
2022/12/13 05:51:42;;;;;;;;;;;;;;;-7.76;100.00;101040.25;5013945;28;19913;-62
2022/12/13 05:54:07;;;;;;;;;;;;;;;-7.74;100.00;101045.44;5014028;28;20373;-62
2022/12/13 05:56:32;;;;;;;;;;;;;;;-7.74;100.00;101040.88;5014052;28;19913;-62
2022/12/13 05:58:59;;;;;;;;;;;;;;;-7.72;100.00;101036.19;5014458;28;19940;-61
2022/12/13 06:01:24;;;;;;;;;;;;;;;-7.70;100.00;101036.84;5014149;28;19913;-61
2022/12/13 06:03:49;;;;;;;;;;;;;;;-7.68;100.00;101042.03;5014117;28;19988;-61
2022/12/13 06:06:16;;;;;;;;;;;;;;;-7.68;100.00;101042.03;5013795;28;20015;-61
2022/12/13 06:08:42;;;;;;;;;;;;;;;-7.69;100.00;101040.34;5013715;28;20012;-60
2022/12/13 06:11:07;;;;;;;;;;;;;;;-7.71;100.00;101039.72;5013956;28;19956;-62
2022/12/13 06:13:32;;;;;;;;;;;;;;;-7.71;100.00;101042.41;5013655;28;20341;-62
2022/12/13 06:16:01;;;;;;;;;;;;;;;-7.72;100.00;101040.72;5009681;28;19917;-62
2022/12/13 06:18:28;;;;;;;;;;;;;;;-7.72;100.00;101041.56;5013488;28;20126;-62
2022/12/13 06:20:57;;;;;;;;;;;;;;;-7.72;100.00;101048.78;5013492;28;19919;-61
2022/12/13 06:23:22;;;;;;;;;;;;;;;-7.74;100.00;101045.44;5013671;28;19914;-61
2022/12/13 06:25:48;;;;;;;;;;;;;;;-7.78;100.00;101046.81;5001748;28;19944;-62
2022/12/13 06:28:13;;;;;;;;;;;;;;;-7.85;100.00;101042.16;4994009;28;19955;-61
2022/12/13 06:30:38;;;;;;;;;;;;;;;-7.82;100.00;101049.00;4993847;28;20012;-61
2022/12/13 06:33:03;;;;;;;;;;;;;;;-7.85;100.00;101049.41;4993961;28;19913;-60
2022/12/13 06:35:28;;;;;;;;;;;;;;;-7.88;100.00;101042.50;4994267;28;20360;-62
2022/12/13 06:37:54;;;;;;;;;;;;;;;-7.87;100.00;101043.34;4993453;28;19924;-61
2022/12/13 06:40:19;;;;;;;;;;;;;;;-7.88;100.00;101047.88;4993863;28;19914;-61
2022/12/13 06:42:44;;;;;;;;;;;;;;;-7.88;100.00;101052.44;5003731;28;20348;-61
2022/12/13 06:45:10;;;;;;;;;;;;;;;-7.88;100.00;101052.44;5013038;28;19914;-60
2022/12/13 06:47:35;;;;;;;;;;;;;;;-7.88;100.00;101052.44;5013388;28;19991;-59
2022/12/13 06:50:00;;;;;;;;;;;;;;;-7.90;100.00;101054.44;5013389;28;19914;-60
2022/12/13 06:52:25;;;;;;;;;;;;;;;-7.91;100.00;101044.72;5013158;28;19913;-60
2022/12/13 06:54:50;;;;;;;;;;;;;;;-7.92;100.00;101048.41;5013229;28;19913;-60
2022/12/13 06:57:16;;;;;;;;;;;;;;;-7.91;100.00;101044.72;5012763;28;19913;-59
2022/12/13 06:59:41;;;;;;;;;;;;;;;-7.93;100.00;101041.41;5013487;28;19945;-60
2022/12/13 07:02:07;;;;;;;;;;;;;;;-7.95;100.00;101046.94;5013032;28;19914;-60
2022/12/13 07:04:32;;;;;;;;;;;;;;;-7.92;100.00;101048.41;5012849;28;19914;-61
2022/12/13 07:06:57;;;;;;;;;;;;;;;-7.92;100.00;101051.09;5012926;28;19913;-61
2022/12/13 07:09:22;;;;;;;;;;;;;;;-7.92;100.00;101059.16;5012887;28;20003;-61
2022/12/13 07:11:47;;;;;;;;;;;;;;;-7.92;100.00;101051.09;5008919;28;19914;-61
2022/12/13 07:14:12;;;;;;;;;;;;;;;-7.91;100.00;101055.47;5012839;28;20276;-61
2022/12/13 07:16:38;;;;;;;;;;;;;;;-7.92;100.00;101054.63;5012708;28;19921;-61
2022/12/13 07:19:03;;;;;;;;;;;;;;;-7.92;100.00;101053.78;5012751;28;19940;-61
2022/12/13 07:21:29;;;;;;;;;;;;;;;-7.92;100.00;101049.25;5013037;28;20361;-61
2022/12/13 07:23:54;;;;;;;;;;;;;;;-7.92;100.00;101045.72;5012563;28;19951;-60
2022/12/13 07:26:19;;;;;;;;;;;;;;;-7.94;100.00;101053.97;5012573;28;19929;-60
2022/12/13 07:28:45;;;;;;;;;;;;;;;-7.96;100.00;101050.63;5012348;28;19933;-61
2022/12/13 07:31:10;;;;;;;;;;;;;;;-7.95;100.00;101051.47;5011190;28;19913;-60
2022/12/13 07:33:36;;;;;;;;;;;;;;;-7.97;100.00;101054.31;5011433;28;20035;-61
2022/12/13 07:36:10;;;;;;;;;;;;;;;-7.97;100.00;101048.94;5010467;28;20361;-61
2022/12/13 07:38:36;;;;;;;;;;;;;;;-7.96;100.00;101057.88;5010806;28;20020;-64
2022/12/13 07:41:02;;;;;;;;;;;;;;;-7.94;100.00;101061.22;5010678;28;20004;-63
2022/12/13 07:43:28;;;;;;;;;;;;;;;-7.93;100.00;101052.13;5010813;28;19914;-63
2022/12/13 07:45:56;;;;;;;;;;;;;;;-7.91;100.00;101047.41;5011728;28;19959;-61
2022/12/13 07:48:21;;;;;;;;;;;;;;;-7.90;100.00;101044.56;5012092;28;20020;-63
2022/12/13 07:50:47;;;;;;;;;;;;;;;-7.88;100.00;101057.78;5012120;28;19979;-64
2022/12/13 07:53:12;;;;;;;;;;;;;;;-7.86;100.00;101055.78;5011739;28;20383;-64
2022/12/13 07:55:37;;;;;;;;;;;;;;;-7.82;100.00;101062.44;4991657;28;19914;-64
2022/12/13 07:58:03;;;;;;;;;;;;;;;-7.82;100.00;101059.75;4991350;28;19921;-63
2022/12/13 08:00:29;;;;;;;;;;;;;;;-7.79;100.00;101067.47;5000232;28;19940;-63
2022/12/13 08:02:54;;;;;;;;;;;;;;;-7.76;100.00;101071.63;5010385;28;20273;-64
2022/12/13 08:05:20;;;;;;;;;;;;;;;-7.73;100.00;101068.59;5010244;28;19920;-63
2022/12/13 08:07:45;;;;;;;;;;;;;;;-7.70;100.00;101065.56;5008451;28;20321;-64
2022/12/13 08:10:10;;;;;;;;;;;;;;;-7.66;100.00;101066.88;5010136;28;19924;-64
2022/12/13 08:12:36;;;;;;;;;;;;;;;-7.62;100.00;101067.34;5009417;28;20016;-63
2022/12/13 08:15:01;;;;;;;;;;;;;;;-7.59;100.00;101062.44;5010398;28;19928;-65
2022/12/13 08:17:26;;;;;;;;;;;;;;;-7.56;100.00;101069.31;5010706;28;19925;-65
2022/12/13 08:19:51;;;;;;;;;;;;;;;-7.54;100.00;101060.06;5010601;28;19917;-65
2022/12/13 08:22:17;;;;;;;;;;;;;;;-7.51;100.00;101064.22;5010637;28;19917;-64
2022/12/13 08:24:42;;;;;;;;;;;;;;;-7.46;100.00;101066.38;5010317;28;19913;-63
2022/12/13 08:27:07;;;;;;;;;;;;;;;-7.43;100.00;101057.94;5010502;28;19917;-63
2022/12/13 08:29:33;;;;;;;;;;;;;;;-7.40;100.00;101069.16;5010347;28;19917;-64
2022/12/13 08:31:59;;;;;;;;;;;;;;;-7.37;100.00;101076.03;5010031;28;20369;-63
2022/12/13 08:34:24;;;;;;;;;;;;;;;-7.32;100.00;101064.72;5010080;28;20015;-64
2022/12/13 08:36:51;;;;;;;;;;;;;;;-7.28;100.00;101082.19;5010092;28;19919;-64
2022/12/13 08:39:16;;;;;;;;;;;;;;;-7.24;100.00;101067.34;5007647;28;20000;-63
2022/12/13 08:41:41;;;;;;;;;;;;;;;-7.21;100.00;101075.03;5010384;28;20348;-64
2022/12/13 08:44:06;;;;;;;;;;;;;;;-7.17;100.00;101081.72;5010619;28;19918;-63
2022/12/13 08:46:32;;;;;;;;;;;;;;;-7.14;100.00;101078.66;5010023;28;20016;-64
2022/12/13 08:48:57;;;;;;;;;;;;;;;-7.10;100.00;101073.75;5010278;28;19925;-63
2022/12/13 08:51:23;;;;;;;;;;;;;;;-7.05;100.00;101076.75;5010244;28;19940;-64
2022/12/13 08:53:49;;;;;;;;;;;;;;;-7.01;100.00;101080.72;5010591;28;19913;-64
2022/12/13 08:56:16;;;;;;;;;;;;;;;-6.95;100.00;101084.53;5010650;28;19924;-64
2022/12/13 08:58:41;;;;;;;;;;;;;;;-6.88;100.00;101090.00;5010939;28;19913;-64
2022/12/13 09:01:07;;;;;;;;;;;;;;;-6.82;100.00;101084.75;5007697;28;19920;-63
2022/12/13 09:03:32;;;;;;;;;;;;;;;-6.75;100.00;101098.25;5010389;28;20306;-64
2022/12/13 09:06:04;;;;;;;;;;;;;;;-6.67;100.00;101097.34;5010445;28;19960;-64
2022/12/13 09:08:29;;;;;;;;;;;;;;;-6.60;100.00;101093.72;5006465;28;20008;-64
2022/12/13 09:10:56;;;;;;;;;;;;;;;-6.51;100.00;101093.63;4992837;28;20012;-64
2022/12/13 09:13:21;;;;;;;;;;;;;;;-6.45;100.00;101082.09;4993360;28;19945;-64
2022/12/13 09:15:47;;;;;;;;;;;;;;;-6.39;100.00;101080.53;4994059;28;19918;-64
2022/12/13 09:18:12;;;;;;;;;;;;;;;-6.32;100.00;101076.03;4993645;28;19917;-63
2022/12/13 09:20:39;;;;;;;;;;;;;;;-6.25;100.00;101076.97;4993879;28;19920;-63
2022/12/13 09:23:05;;;;;;;;;;;;;;;-6.16;100.00;101081.25;4994401;28;20370;-63
2022/12/13 09:25:30;;;;;;;;;;;;;;;-6.07;100.00;101083.81;4994326;28;20029;-63
2022/12/13 09:27:55;;;;;;;;;;;;;;;-6.01;100.00;101088.44;4994207;28;19917;-63
2022/12/13 09:30:20;;;;;;;;;;;;;;;-5.93;100.00;101085.56;4993789;28;19917;-64
2022/12/13 09:32:48;;;;;;;;;;;;;;;-5.86;100.00;101093.75;4993410;28;20421;-65
2022/12/13 09:35:13;;;;;;;;;;;;;;;-5.80;100.00;101093.81;4993850;28;20338;-63
2022/12/13 09:37:39;;;;;;;;;;;;;;;-5.72;100.00;101094.72;4994068;28;19932;-65
2022/12/13 09:40:04;;;;;;;;;;;;;;;-5.65;100.00;101095.59;5002011;28;19924;-66
2022/12/13 09:42:32;;;;;;;;;;;;;;;-5.56;100.00;101091.75;5014073;28;19928;-66
2022/12/13 09:44:59;;;;;;;;;;;;;;;-5.45;100.00;101093.13;5013964;28;19913;-65
2022/12/13 09:47:27;;;;;;;;;;;;;;;-5.38;100.00;101094.00;5013407;28;19921;-65
2022/12/13 09:49:53;;;;;;;;;;;;;;;-5.28;100.00;101096.34;5013595;28;20008;-66
2022/12/13 09:52:19;;;;;;;;;;;;;;;-5.20;100.00;101088.16;5013856;28;20019;-65
2022/12/13 09:54:45;;;;;;;;;;;;;;;-5.10;100.00;101084.28;5013774;28;19932;-65
2022/12/13 09:57:16;;;;;;;;;;;;;;;-4.99;100.00;101077.50;5010956;28;19913;-66
2022/12/13 09:59:42;;;;;;;;;;;;;;;-4.90;100.00;101077.13;5013152;28;20250;-66
2022/12/13 10:02:14;;;;;;;;;;;;;;;-4.77;100.00;101067.44;5013206;28;20387;-66
2022/12/13 10:04:40;;;;;;;;;;;;;;;-4.72;100.00;101062.28;5012945;28;20011;-65
2022/12/13 10:07:17;;;;;;;;;;;;;;;-4.61;100.00;101059.03;5012909;28;20019;-66
2022/12/13 10:09:43;;;;;;;;;;;;;;;-4.52;100.00;101054.28;5012917;28;20004;-65
2022/12/13 10:12:12;;;;;;;;;;;;;;;-4.43;100.00;101055.78;5012113;28;19914;-65
2022/12/13 10:14:39;;;;;;;;;;;;;;;-4.33;100.00;101050.00;5012456;28;20012;-65
2022/12/13 10:17:06;;;;;;;;;;;;;;;-4.24;100.00;101047.97;5027732;28;20054;-63
2022/12/13 10:19:37;;;;;;;;;;;;;;;-4.15;100.00;101044.03;5012414;28;20006;-63
2022/12/13 10:22:04;;;;;;;;;;;;;;;-4.08;100.00;101042.19;5012403;28;19917;-59
2022/12/13 10:24:46;;;;;;;;;;;;;;;-4.01;100.00;101039.50;5003658;28;19975;-65
2022/12/13 10:27:17;;;;;;;;;;;;;;;-3.88;100.00;101044.09;5003508;28;19922;-64
2022/12/13 10:30:04;;;;;;;;;;;;;;;-3.85;100.00;101038.28;5002106;28;19914;-64
2022/12/13 10:32:32;;;;;;;;;;;;;;;-3.83;100.00;101028.13;5002956;28;19984;-64
2022/12/13 10:34:57;;;;;;;;;;;;;;;-3.78;100.00;101016.69;5004704;28;19945;-64
2022/12/13 10:37:22;;;;;;;;;;;;;;;-3.73;100.00;101019.59;5005579;28;19956;-64
2022/12/13 10:39:48;;;;;;;;;;;;;;;-3.67;100.00;101016.03;5002591;28;19924;-64
2022/12/13 10:42:15;;;;;;;;;;;;;;;-3.64;100.00;101020.22;5003776;28;19920;-64
2022/12/13 10:44:40;;;;;;;;;;;;;;;-3.57;100.00;101014.78;5000195;28;19917;-64
2022/12/13 10:47:08;;;;;;;;;;;;;;;-3.53;100.00;101010.66;5000693;28;19947;-62
2022/12/13 10:49:39;;;;;;;;;;;;;;;-3.45;100.00;101011.25;5000737;28;20016;-64
2022/12/13 10:52:04;;;;;;;;;;;;;;;-3.41;100.00;101010.84;4998820;28;19914;-64
2022/12/13 10:54:31;;;;;;;;;;;;;;;-3.35;100.00;101010.84;5000684;28;19971;-64
2022/12/13 10:57:01;;;;;;;;;;;;;;;-3.30;100.00;101005.63;5002808;28;20062;-64
2022/12/13 10:59:26;;;;;;;;;;;;;;;-3.23;100.00;101000.22;4996739;28;19944;-64
2022/12/13 11:01:52;;;;;;;;;;;;;;;-3.20;100.00;100996.25;5000835;28;20332;-64
2022/12/13 11:04:22;;;;;;;;;;;;;;;-3.17;100.00;100991.28;4997862;28;19917;-64
2022/12/13 11:06:47;;;;;;;;;;;;;;;-3.11;100.00;100986.03;5000719;28;19917;-63
2022/12/13 11:09:33;;;;;;;;;;;;;;;-3.07;100.00;100982.69;4995900;28;19917;-64
2022/12/13 11:12:02;;;;;;;;;;;;;;;-3.03;100.00;100975.84;4991605;28;19960;-64
2022/12/13 11:14:30;;;;;;;;;;;;;;;-3.06;100.00;100980.81;4991976;28;20318;-64
2022/12/13 11:16:56;;;;;;;;;;;;;;;-3.04;100.00;100981.44;4992177;28;20012;-64
2022/12/13 11:19:28;;;;;;;;;;;;;;;-2.96;100.00;100972.25;4992249;28;19940;-63
2022/12/13 11:21:54;;;;;;;;;;;;;;;-2.92;100.00;100979.75;4992446;28;19925;-63
2022/12/13 11:24:29;;;;;;;;;;;;;;;-2.82;100.00;100971.16;4992436;28;19917;-63
2022/12/13 11:27:19;;;;;;;;;;;;;;;-2.78;100.00;100975.13;4992518;28;20047;-64
2022/12/13 11:30:03;;;;;;;;;;;;;;;-2.69;100.00;100972.97;5011551;28;19921;-64
2022/12/13 11:32:37;;;;;;;;;;;;;;;-2.67;100.00;100973.59;5011710;28;19933;-64
2022/12/13 11:35:21;;;;;;;;;;;;;;;-2.56;100.00;100970.22;5011654;28;20022;-64
2022/12/13 11:37:52;;;;;;;;;;;;;;;-2.44;100.00;100972.25;5011103;28;19917;-64
2022/12/13 11:40:31;;;;;;;;;;;;;;;-2.41;100.00;100977.25;5011614;28;19918;-63
2022/12/13 11:43:14;;;;;;;;;;;;;;;-2.36;100.00;100969.28;5011575;28;19969;-63
2022/12/13 11:45:41;;;;;;;;;;;;;;;-2.31;100.00;100979.47;5011499;28;19960;-63
2022/12/13 11:48:18;;;;;;;;;;;;;;;-2.24;100.00;100977.56;5008852;28;19913;-64
2022/12/13 11:50:49;;;;;;;;;;;;;;;-2.14;100.00;100969.78;5011673;28;19917;-63
2022/12/13 11:53:29;;;;;;;;;;;;;;;-2.05;100.00;100962.25;5011275;28;19921;-64
2022/12/13 11:55:57;;;;;;;;;;;;;;;-2.01;100.00;100957.19;5026169;28;19940;-64
2022/12/13 11:58:32;;;;;;;;;;;;;;;-1.94;100.00;100945.28;5011251;28;19918;-64
2022/12/13 12:01:01;;;;;;;;;;;;;;;-1.88;100.00;100947.09;5011152;28;19917;-64
2022/12/13 12:03:44;;;;;;;;;;;;;;;-1.84;100.00;100938.53;5011051;28;20348;-63
2022/12/13 12:06:09;;;;;;;;;;;;;;;-1.83;100.00;100938.28;5011183;28;19913;-63
2022/12/13 12:08:43;;;;;;;;;;;;;;;-1.83;100.00;100938.28;5011146;28;20111;-63
2022/12/13 12:11:22;;;;;;;;;;;;;;;-1.78;100.00;100934.91;5011475;28;19921;-64
2022/12/13 12:14:13;;;;;;;;;;;;;;;-1.75;100.00;100932.59;5010319;28;19972;-64
2022/12/13 12:16:50;;;;;;;;;;;;;;;-1.67;100.00;100925.22;5003073;28;20013;-63
2022/12/13 12:19:17;;;;;;;;;;;;;;;-1.60;100.00;100917.84;5001817;28;19941;-64
2022/12/13 12:22:01;;;;;;;;;;;;;;;-1.67;100.00;100917.06;4998068;28;19917;-64
2022/12/13 12:24:45;;;;;;;;;;;;;;;-1.67;100.00;100919.78;5002367;28;19925;-64
2022/12/13 12:27:22;;;;;;;;;;;;;;;-1.61;100.00;100925.16;5005054;28;19919;-64
2022/12/13 12:30:09;;;;;;;;;;;;;;;-1.57;100.00;100928.25;5010852;28;19944;-64
2022/12/13 12:33:06;;;;;;;;;;;;;;;-1.57;100.00;100926.38;5011133;28;19947;-64
2022/12/13 12:35:40;;;;;;;;;;;;;;;-1.57;100.00;100929.09;4998751;28;19917;-64